createdAt,value
2022-08-28T00:02:00.074Z,55.01
2022-08-28T00:04:27.405Z,55.08
2022-08-28T00:06:54.612Z,54.96
2022-08-28T00:09:21.799Z,54.92
2022-08-28T00:11:49.404Z,55.17
2022-08-28T00:14:20.960Z,55.24
2022-08-28T00:16:49.551Z,54.86
2022-08-28T00:19:18.086Z,54.88
2022-08-28T00:21:45.376Z,55.00
2022-08-28T00:24:12.537Z,55.38
2022-08-28T00:26:58.179Z,55.38
2022-08-28T00:29:25.100Z,55.30
2022-08-28T00:31:52.159Z,55.18
2022-08-28T00:34:18.988Z,55.33
2022-08-28T00:36:52.208Z,55.29
2022-08-28T00:39:19.390Z,55.55
2022-08-28T00:41:46.305Z,55.64
2022-08-28T00:44:20.071Z,55.54
2022-08-28T00:46:49.457Z,55.48
2022-08-28T00:49:19.535Z,55.46
2022-08-28T00:52:05.959Z,55.20
2022-08-28T00:54:39.643Z,54.97
2022-08-28T00:57:11.082Z,54.49
2022-08-28T00:59:37.871Z,54.52
2022-08-28T01:02:07.073Z,54.22
2022-08-28T01:04:35.915Z,54.62
2022-08-28T01:07:09.709Z,54.57
2022-08-28T01:09:40.385Z,54.42
2022-08-28T01:12:19.487Z,54.61
2022-08-28T01:14:49.188Z,54.69
2022-08-28T01:17:19.983Z,54.33
2022-08-28T01:19:57.114Z,54.41
2022-08-28T01:22:36.951Z,54.60
2022-08-28T01:25:07.461Z,54.59
2022-08-28T01:27:34.998Z,54.54
2022-08-28T01:30:02.199Z,54.44
2022-08-28T01:32:37.674Z,54.56
2022-08-28T01:35:07.367Z,54.65
2022-08-28T01:37:36.815Z,54.49
2022-08-28T01:40:09.344Z,54.59
2022-08-28T01:42:39.289Z,54.43
2022-08-28T01:45:10.990Z,54.60
2022-08-28T01:47:39.640Z,54.47
2022-08-28T01:50:07.939Z,54.55
2022-08-28T01:52:36.319Z,54.62
2022-08-28T01:55:06.650Z,54.65
2022-08-28T01:57:34.009Z,54.83
2022-08-28T02:00:00.859Z,54.77
2022-08-28T02:02:27.654Z,54.70
2022-08-28T02:04:54.363Z,55.15
2022-08-28T02:07:21.416Z,54.70
2022-08-28T02:09:48.173Z,54.34
2022-08-28T02:12:15.019Z,54.74
2022-08-28T02:14:41.799Z,54.68
2022-08-28T02:17:08.548Z,55.04
2022-08-28T02:19:35.374Z,55.07
2022-08-28T02:22:03.954Z,54.79
2022-08-28T02:24:30.745Z,54.81
2022-08-28T02:26:57.507Z,54.73
2022-08-28T02:29:26.042Z,54.73
2022-08-28T02:31:52.874Z,54.91
2022-08-28T02:34:19.827Z,54.61
2022-08-28T02:36:47.380Z,54.91
2022-08-28T02:39:14.250Z,54.74
2022-08-28T02:41:41.005Z,55.08
2022-08-28T02:44:07.858Z,55.25
2022-08-28T02:46:35.014Z,55.16
2022-08-28T02:49:01.762Z,55.49
2022-08-28T02:51:32.874Z,55.42
2022-08-28T02:54:01.214Z,55.15
2022-08-28T02:56:28.677Z,55.34
2022-08-28T02:58:56.658Z,55.35
2022-08-28T03:01:23.845Z,55.17
2022-08-28T03:03:50.847Z,55.10
2022-08-28T03:06:17.714Z,55.32
2022-08-28T03:08:44.886Z,55.16
2022-08-28T03:11:12.248Z,54.98
2022-08-28T03:13:39.073Z,54.66
2022-08-28T03:16:07.328Z,54.60
2022-08-28T03:18:34.278Z,54.73
2022-08-28T03:21:01.886Z,54.68
2022-08-28T03:23:30.242Z,54.82
2022-08-28T03:26:01.584Z,54.77
2022-08-28T03:28:33.184Z,55.25
2022-08-28T03:31:00.902Z,55.32
2022-08-28T03:33:28.266Z,55.51
2022-08-28T03:35:55.576Z,55.29
2022-08-28T03:38:22.729Z,55.57
2022-08-28T03:40:52.446Z,55.35
2022-08-28T03:43:22.463Z,55.28
2022-08-28T03:46:01.271Z,55.14
2022-08-28T03:48:31.229Z,55.76
2022-08-28T03:50:59.822Z,56.11
2022-08-28T03:53:29.519Z,55.80
2022-08-28T03:55:58.065Z,56.07
2022-08-28T03:58:26.366Z,56.00
2022-08-28T04:00:53.235Z,55.93
2022-08-28T04:03:20.194Z,56.00
2022-08-28T04:05:47.715Z,56.06
2022-08-28T04:08:20.195Z,55.71
2022-08-28T04:10:50.253Z,55.80
2022-08-28T04:13:19.543Z,55.73
2022-08-28T04:15:55.559Z,55.84
2022-08-28T04:18:22.449Z,55.97
2022-08-28T04:21:01.243Z,55.73
2022-08-28T04:23:29.506Z,55.97
2022-08-28T04:25:56.398Z,55.87
2022-08-28T04:28:24.470Z,55.97
2022-08-28T04:30:54.507Z,55.90
2022-08-28T04:33:26.288Z,56.18
2022-08-28T04:35:53.809Z,56.13
2022-08-28T04:38:21.227Z,55.47
2022-08-28T04:40:48.161Z,55.65
2022-08-28T04:43:15.016Z,55.58
2022-08-28T04:45:43.872Z,55.55
2022-08-28T04:48:14.723Z,55.83
2022-08-28T04:50:43.688Z,55.85
2022-08-28T04:53:11.109Z,55.54
2022-08-28T04:55:54.744Z,55.64
2022-08-28T04:58:23.803Z,55.81
2022-08-28T05:00:52.531Z,55.44
2022-08-28T05:03:19.352Z,55.19
2022-08-28T05:05:52.565Z,55.24
2022-08-28T05:08:22.038Z,55.54
2022-08-28T05:10:50.813Z,55.67
2022-08-28T05:13:18.611Z,54.84
2022-08-28T05:15:48.347Z,54.83
2022-08-28T05:18:16.191Z,54.44
2022-08-28T05:20:45.288Z,54.31
2022-08-28T05:23:12.826Z,54.71
2022-08-28T05:25:43.341Z,54.33
2022-08-28T05:28:12.262Z,54.07
2022-08-28T05:30:41.020Z,54.09
2022-08-28T05:33:09.490Z,54.02
2022-08-28T05:35:38.875Z,53.77
2022-08-28T05:38:06.796Z,54.01
2022-08-28T05:40:34.247Z,54.20
2022-08-28T05:43:01.059Z,54.21
2022-08-28T05:45:27.829Z,53.72
2022-08-28T05:47:54.543Z,53.70
2022-08-28T05:50:21.448Z,53.81
2022-08-28T05:52:48.332Z,53.62
2022-08-28T05:55:15.100Z,53.49
2022-08-28T05:57:42.113Z,53.39
2022-08-28T06:00:12.910Z,53.55
2022-08-28T06:02:40.768Z,53.60
2022-08-28T06:05:08.597Z,53.21
2022-08-28T06:07:39.701Z,52.73
2022-08-28T06:10:07.461Z,52.67
2022-08-28T06:12:38.064Z,52.34
2022-08-28T06:15:05.923Z,51.67
2022-08-28T06:17:32.653Z,51.65
2022-08-28T06:19:59.401Z,51.75
2022-08-28T06:22:26.120Z,51.72
2022-08-28T06:24:53.845Z,51.68
2022-08-28T06:27:20.720Z,51.08
2022-08-28T06:29:47.429Z,51.30
2022-08-28T06:32:14.183Z,51.34
2022-08-28T06:34:41.510Z,51.38
2022-08-28T06:37:09.841Z,51.29
2022-08-28T06:39:36.615Z,51.29
2022-08-28T06:42:03.862Z,51.24
2022-08-28T06:44:32.192Z,51.38
2022-08-28T06:46:59.291Z,51.39
2022-08-28T06:49:26.114Z,51.31
2022-08-28T06:51:52.960Z,51.27
2022-08-28T06:54:22.780Z,51.18
2022-08-28T06:56:51.751Z,51.12
2022-08-28T06:59:18.564Z,50.72
2022-08-28T07:01:45.461Z,50.67
2022-08-28T07:04:14.432Z,50.93
2022-08-28T07:06:46.870Z,50.85
2022-08-28T07:09:14.080Z,50.81
2022-08-28T07:11:44.267Z,51.01
2022-08-28T07:14:11.027Z,50.89
2022-08-28T07:16:39.144Z,51.22
2022-08-28T07:19:07.821Z,51.19
2022-08-28T07:21:38.368Z,51.44
2022-08-28T07:24:07.746Z,51.18
2022-08-28T07:26:36.282Z,51.17
2022-08-28T07:29:10.106Z,51.24
2022-08-28T07:31:41.797Z,50.92
2022-08-28T07:34:10.562Z,51.18
2022-08-28T07:36:37.929Z,51.25
2022-08-28T07:39:05.974Z,51.17
2022-08-28T07:41:35.550Z,50.78
2022-08-28T07:44:21.251Z,50.84
2022-08-28T07:46:48.071Z,50.83
2022-08-28T07:49:17.679Z,50.39
2022-08-28T07:51:46.723Z,50.44
2022-08-28T07:54:17.745Z,50.28
2022-08-28T07:56:46.312Z,50.25
2022-08-28T07:59:16.938Z,50.02
2022-08-28T08:01:47.738Z,49.90
2022-08-28T08:04:18.354Z,49.47
2022-08-28T08:06:45.637Z,49.74
2022-08-28T08:09:15.087Z,49.39
2022-08-28T08:11:42.666Z,49.62
2022-08-28T08:14:10.158Z,49.26
2022-08-28T08:16:40.662Z,49.11
2022-08-28T08:19:10.021Z,47.19
2022-08-28T08:21:37.566Z,43.77
2022-08-28T08:24:04.712Z,42.59
2022-08-28T08:26:32.295Z,42.50
2022-08-28T08:28:59.779Z,42.31
2022-08-28T08:31:32.368Z,42.58
2022-08-28T08:34:02.838Z,42.51
2022-08-28T08:36:31.729Z,43.18
2022-08-28T08:39:00.486Z,43.82
2022-08-28T08:41:51.232Z,44.02
2022-08-28T08:44:34.071Z,44.84
2022-08-28T08:47:19.764Z,45.72
2022-08-28T08:49:54.505Z,46.32
2022-08-28T08:52:48.909Z,46.64
2022-08-28T08:55:35.692Z,46.74
2022-08-28T08:58:15.476Z,46.41
2022-08-28T09:01:22.141Z,46.83
2022-08-28T09:04:04.054Z,46.29
2022-08-28T09:06:52.851Z,46.34
2022-08-28T09:09:40.891Z,46.51
2022-08-28T09:12:13.243Z,46.93
2022-08-28T09:15:09.765Z,46.68
2022-08-28T09:18:08.950Z,47.18
2022-08-28T09:20:35.858Z,47.07
2022-08-28T09:23:13.426Z,46.98
2022-08-28T09:25:52.269Z,46.84
2022-08-28T09:28:28.980Z,46.67
2022-08-28T09:31:01.433Z,46.50
2022-08-28T09:33:30.688Z,46.44
2022-08-28T09:35:57.768Z,46.33
2022-08-28T09:38:27.912Z,45.68
2022-08-28T09:41:30.289Z,45.13
2022-08-28T09:43:57.174Z,44.35
2022-08-28T09:46:32.387Z,44.36
2022-08-28T09:49:12.142Z,44.50
2022-08-28T09:51:39.941Z,44.94
2022-08-28T09:54:17.079Z,45.01
2022-08-28T09:56:44.950Z,44.55
2022-08-28T09:59:17.931Z,43.97
2022-08-28T10:02:11.484Z,44.09
2022-08-28T10:05:24.254Z,40.45
2022-08-28T10:08:07.967Z,38.49
2022-08-28T10:10:41.838Z,37.43
2022-08-28T10:13:30.052Z,37.71
2022-08-28T10:15:56.814Z,35.96
2022-08-28T10:18:39.199Z,33.11
2022-08-28T10:21:31.536Z,32.15
2022-08-28T10:24:15.007Z,33.36
2022-08-28T10:27:03.281Z,34.11
2022-08-28T10:29:53.296Z,33.56
2022-08-28T10:32:48.092Z,31.14
2022-08-28T10:35:21.546Z,28.99
2022-08-28T10:37:57.259Z,26.48
2022-08-28T10:40:40.973Z,25.47
2022-08-28T10:43:16.343Z,24.57
2022-08-28T10:45:43.205Z,24.74
2022-08-28T10:48:25.105Z,25.14
2022-08-28T10:51:11.001Z,25.72
2022-08-28T10:53:42.101Z,24.29
2022-08-28T10:56:17.606Z,24.09
2022-08-28T10:58:49.258Z,23.87
2022-08-28T11:01:34.459Z,23.78
2022-08-28T11:04:06.839Z,23.24
2022-08-28T11:06:43.155Z,24.62
2022-08-28T11:09:26.230Z,25.53
2022-08-28T11:12:01.071Z,26.65
2022-08-28T11:14:33.738Z,26.43
2022-08-28T11:17:05.939Z,25.41
2022-08-28T11:19:54.218Z,25.69
2022-08-28T11:22:30.769Z,26.17
2022-08-28T11:25:08.930Z,25.89
2022-08-28T11:27:38.094Z,26.61
2022-08-28T11:30:11.145Z,25.91
2022-08-28T11:32:57.033Z,24.32
2022-08-28T11:35:29.983Z,24.11
2022-08-28T11:37:58.431Z,24.54
2022-08-28T11:40:28.334Z,23.81
2022-08-28T11:43:16.965Z,23.41
2022-08-28T11:45:45.825Z,23.07
2022-08-28T11:48:23.280Z,21.48
2022-08-28T11:51:04.210Z,22.10
2022-08-28T11:54:15.851Z,21.81
2022-08-28T11:57:07.772Z,20.97
2022-08-28T11:59:49.773Z,21.44
2022-08-28T12:02:39.092Z,21.26
2022-08-28T12:05:10.852Z,21.10
2022-08-28T12:07:42.913Z,21.02
2022-08-28T12:10:27.648Z,21.44
2022-08-28T12:13:03.384Z,22.08
2022-08-28T12:15:30.274Z,21.48
2022-08-28T12:18:16.801Z,21.76
2022-08-28T12:20:58.874Z,22.58
2022-08-28T12:23:59.140Z,23.01
2022-08-28T12:26:38.746Z,24.03
2022-08-28T12:29:34.735Z,26.00
2022-08-28T12:32:14.479Z,26.82
2022-08-28T12:34:59.602Z,27.07
2022-08-28T12:37:52.636Z,26.62
2022-08-28T12:40:41.433Z,27.33
2022-08-28T12:43:11.111Z,28.24
2022-08-28T12:45:56.431Z,27.79
2022-08-28T12:48:27.701Z,27.82
2022-08-28T12:50:58.588Z,26.87
2022-08-28T12:53:26.783Z,26.93
2022-08-28T12:55:55.627Z,27.35
2022-08-28T12:58:34.651Z,28.53
2022-08-28T13:01:06.926Z,28.62
2022-08-28T13:03:33.919Z,29.60
2022-08-28T13:06:06.305Z,30.08
2022-08-28T13:08:34.653Z,30.42
2022-08-28T13:11:01.790Z,30.74
2022-08-28T13:13:40.006Z,30.81
2022-08-28T13:16:11.801Z,30.47
2022-08-28T13:18:44.680Z,30.69
2022-08-28T13:21:32.768Z,31.16
2022-08-28T13:24:21.336Z,31.33
2022-08-28T13:26:59.215Z,31.84
2022-08-28T13:29:26.587Z,31.46
2022-08-28T13:32:01.214Z,31.46
2022-08-28T13:34:30.825Z,31.02
2022-08-28T13:37:00.131Z,30.90
2022-08-28T13:39:30.486Z,30.64
2022-08-28T13:42:00.415Z,30.74
2022-08-28T13:44:40.322Z,31.33
2022-08-28T13:47:07.182Z,31.06
2022-08-28T13:49:35.105Z,31.17
2022-08-28T13:52:05.644Z,30.96
2022-08-28T13:54:34.734Z,30.44
2022-08-28T13:57:03.167Z,30.22
2022-08-28T13:59:31.023Z,30.33
2022-08-28T14:02:21.707Z,30.23
2022-08-28T14:04:49.003Z,29.98
2022-08-28T14:07:16.764Z,30.00
2022-08-28T14:09:43.688Z,30.39
2022-08-28T14:12:11.361Z,30.61
2022-08-28T14:14:38.939Z,30.66
2022-08-28T14:17:07.923Z,30.86
2022-08-28T14:19:35.091Z,31.26
2022-08-28T14:22:03.802Z,31.61
2022-08-28T14:24:30.760Z,31.68
2022-08-28T14:26:57.783Z,31.09
2022-08-28T14:29:24.831Z,30.66
2022-08-28T14:31:51.872Z,31.13
2022-08-28T14:34:22.353Z,31.21
2022-08-28T14:36:55.137Z,30.84
2022-08-28T14:39:25.158Z,30.94
2022-08-28T14:41:53.271Z,30.63
2022-08-28T14:44:21.690Z,31.44
2022-08-28T14:46:49.519Z,31.37
2022-08-28T14:49:17.814Z,31.35
2022-08-28T14:51:47.012Z,30.99
2022-08-28T14:54:16.457Z,30.88
2022-08-28T14:56:46.009Z,31.25
2022-08-28T14:59:23.782Z,30.44
2022-08-28T15:01:53.003Z,31.36
2022-08-28T15:04:22.858Z,31.56
2022-08-28T15:06:54.872Z,31.11
2022-08-28T15:09:21.743Z,31.38
2022-08-28T15:11:48.604Z,31.46
2022-08-28T15:14:15.617Z,31.13
2022-08-28T15:16:45.505Z,31.45
2022-08-28T15:19:16.002Z,31.68
2022-08-28T15:21:49.453Z,31.00
2022-08-28T15:24:18.077Z,31.12
2022-08-28T15:26:45.458Z,31.15
2022-08-28T15:29:12.556Z,31.44
2022-08-28T15:31:42.504Z,31.70
2022-08-28T15:34:13.328Z,31.60
2022-08-28T15:36:42.457Z,31.69
2022-08-28T15:39:28.909Z,31.81
2022-08-28T15:41:56.595Z,31.59
2022-08-28T15:44:23.863Z,31.56
2022-08-28T15:47:01.087Z,31.85
2022-08-28T15:49:30.597Z,31.47
2022-08-28T15:51:59.239Z,31.71
2022-08-28T15:54:26.489Z,32.60
2022-08-28T15:56:53.950Z,32.19
2022-08-28T15:59:21.565Z,32.97
2022-08-28T16:01:50.621Z,32.71
2022-08-28T16:04:18.019Z,32.47
2022-08-28T16:06:45.960Z,32.77
2022-08-28T16:09:13.142Z,32.99
2022-08-28T16:11:43.774Z,32.77
2022-08-28T16:14:12.371Z,32.42
2022-08-28T16:16:40.009Z,32.67
2022-08-28T16:19:13.387Z,32.69
2022-08-28T16:21:40.144Z,33.21
2022-08-28T16:24:07.209Z,33.35
2022-08-28T16:26:33.981Z,33.60
2022-08-28T16:29:00.770Z,33.53
2022-08-28T16:31:28.477Z,33.46
2022-08-28T16:33:56.818Z,33.51
2022-08-28T16:36:25.344Z,33.01
2022-08-28T16:39:03.675Z,33.15
2022-08-28T16:41:31.975Z,33.43
2022-08-28T16:43:58.939Z,33.58
2022-08-28T16:46:27.399Z,33.32
2022-08-28T16:48:54.652Z,33.64
2022-08-28T16:51:26.680Z,33.77
2022-08-28T16:53:54.725Z,33.54
2022-08-28T16:56:23.691Z,33.34
2022-08-28T16:58:52.927Z,33.38
2022-08-28T17:01:23.840Z,33.44
2022-08-28T17:03:52.938Z,33.55
2022-08-28T17:06:26.115Z,32.88
2022-08-28T17:08:56.924Z,33.24
2022-08-28T17:11:26.206Z,33.14
2022-08-28T17:13:53.397Z,32.98
2022-08-28T17:16:21.431Z,33.19
2022-08-28T17:18:52.394Z,33.16
2022-08-28T17:21:40.554Z,33.56
2022-08-28T17:24:09.330Z,33.49
2022-08-28T17:26:36.141Z,33.77
2022-08-28T17:29:03.304Z,33.98
2022-08-28T17:31:30.228Z,34.02
2022-08-28T17:33:57.133Z,34.19
2022-08-28T17:36:33.144Z,34.17
2022-08-28T17:39:02.287Z,34.56
2022-08-28T17:41:29.099Z,34.70
2022-08-28T17:43:55.957Z,34.76
2022-08-28T17:46:22.781Z,34.80
2022-08-28T17:48:55.718Z,35.08
2022-08-28T17:51:33.725Z,35.01
2022-08-28T17:54:13.052Z,35.13
2022-08-28T17:56:40.375Z,35.20
2022-08-28T17:59:07.705Z,35.37
2022-08-28T18:01:34.569Z,35.54
2022-08-28T18:04:01.398Z,35.67
2022-08-28T18:06:28.200Z,35.75
2022-08-28T18:08:54.963Z,35.88
2022-08-28T18:11:21.737Z,36.05
2022-08-28T18:13:48.509Z,36.21
2022-08-28T18:16:15.765Z,36.62
2022-08-28T18:18:42.820Z,36.68
2022-08-28T18:21:11.290Z,36.62
2022-08-28T18:23:39.763Z,36.83
2022-08-28T18:26:08.260Z,36.99
2022-08-28T18:28:35.644Z,36.86
2022-08-28T18:31:06.129Z,37.07
2022-08-28T18:33:34.959Z,37.65
2022-08-28T18:36:02.047Z,37.75
2022-08-28T18:38:31.389Z,37.80
2022-08-28T18:40:59.691Z,37.89
2022-08-28T18:43:27.058Z,38.11
2022-08-28T18:45:54.243Z,38.29
2022-08-28T18:48:21.454Z,38.61
2022-08-28T18:50:48.765Z,38.42
2022-08-28T18:53:18.232Z,38.52
2022-08-28T18:55:45.828Z,38.42
2022-08-28T18:58:15.005Z,38.64
2022-08-28T19:00:43.573Z,38.97
2022-08-28T19:03:11.200Z,38.89
2022-08-28T19:05:38.871Z,38.83
2022-08-28T19:08:06.222Z,38.67
2022-08-28T19:10:35.075Z,38.66
2022-08-28T19:13:02.989Z,38.31
2022-08-28T19:15:31.131Z,38.30
2022-08-28T19:18:00.401Z,37.70
2022-08-28T19:20:28.433Z,38.00
2022-08-28T19:22:56.613Z,38.02
2022-08-28T19:25:28.633Z,37.81
2022-08-28T19:28:00.980Z,37.83
2022-08-28T19:30:33.545Z,38.08
2022-08-28T19:33:02.126Z,37.59
2022-08-28T19:35:29.172Z,37.95
2022-08-28T19:37:55.979Z,37.93
2022-08-28T19:40:23.214Z,37.44
2022-08-28T19:42:50.254Z,37.73
2022-08-28T19:45:17.839Z,37.29
2022-08-28T19:47:45.402Z,37.42
2022-08-28T19:50:14.389Z,37.12
2022-08-28T19:52:43.281Z,37.08
2022-08-28T19:55:19.393Z,37.53
2022-08-28T19:57:49.275Z,37.33
2022-08-28T20:00:22.296Z,37.24
2022-08-28T20:02:52.342Z,37.38
2022-08-28T20:05:20.521Z,37.43
2022-08-28T20:07:47.752Z,37.02
2022-08-28T20:10:15.375Z,37.31
2022-08-28T20:12:48.059Z,37.13
2022-08-28T20:15:16.911Z,36.97
2022-08-28T20:17:49.358Z,36.45
2022-08-28T20:20:19.205Z,36.68
2022-08-28T20:22:46.312Z,36.65
2022-08-28T20:25:14.818Z,36.20
2022-08-28T20:27:41.800Z,36.70
2022-08-28T20:30:10.887Z,36.65
2022-08-28T20:32:40.109Z,36.21
2022-08-28T20:35:09.502Z,36.68
2022-08-28T20:37:45.338Z,36.42
2022-08-28T20:40:19.260Z,36.22
2022-08-28T20:42:46.564Z,35.82
2022-08-28T20:45:15.465Z,36.11
2022-08-28T20:47:42.482Z,35.91
2022-08-28T20:50:10.249Z,35.90
2022-08-28T20:52:37.417Z,36.11
2022-08-28T20:55:07.627Z,35.92
2022-08-28T20:57:35.084Z,35.91
2022-08-28T21:00:05.676Z,35.83
2022-08-28T21:02:33.126Z,35.55
2022-08-28T21:05:00.389Z,35.67
2022-08-28T21:07:27.910Z,35.73
2022-08-28T21:10:06.783Z,35.66
2022-08-28T21:12:36.871Z,35.63
2022-08-28T21:15:05.801Z,35.54
2022-08-28T21:17:32.639Z,35.42
2022-08-28T21:20:07.120Z,35.57
2022-08-28T21:22:36.063Z,35.45
2022-08-28T21:25:05.169Z,35.38
2022-08-28T21:27:32.014Z,35.56
2022-08-28T21:30:00.235Z,35.56
2022-08-28T21:32:28.786Z,35.27
2022-08-28T21:34:55.639Z,35.34
2022-08-28T21:37:22.963Z,35.42
2022-08-28T21:39:49.840Z,35.65
2022-08-28T21:42:16.734Z,35.61
2022-08-28T21:44:51.246Z,35.58
2022-08-28T21:47:23.094Z,35.46
2022-08-28T21:49:54.829Z,35.68
2022-08-28T21:52:23.619Z,35.78
2022-08-28T21:54:50.499Z,35.53
2022-08-28T21:57:17.778Z,35.85
2022-08-28T21:59:44.542Z,35.54
2022-08-28T22:02:11.352Z,35.81
2022-08-28T22:04:38.153Z,35.67
2022-08-28T22:07:05.050Z,35.77
2022-08-28T22:09:32.134Z,35.75
2022-08-28T22:11:58.894Z,35.71
2022-08-28T22:14:25.915Z,36.07
2022-08-28T22:16:52.684Z,35.99
2022-08-28T22:19:19.535Z,35.98
2022-08-28T22:22:04.952Z,36.02
2022-08-28T22:24:31.791Z,36.12
2022-08-28T22:26:58.539Z,36.02
2022-08-28T22:29:26.087Z,36.03
2022-08-28T22:31:53.062Z,36.19
2022-08-28T22:34:20.186Z,36.25
2022-08-28T22:36:47.050Z,36.48
2022-08-28T22:39:14.105Z,36.53
2022-08-28T22:41:41.979Z,36.75
2022-08-28T22:44:08.976Z,36.63
2022-08-28T22:46:35.971Z,36.64
2022-08-28T22:49:03.268Z,36.56
2022-08-28T22:51:30.027Z,36.86
2022-08-28T22:53:56.833Z,37.18
2022-08-28T22:56:23.915Z,36.94
2022-08-28T22:58:50.765Z,37.03
2022-08-28T23:01:20.807Z,37.10
2022-08-28T23:03:48.307Z,37.30
2022-08-28T23:06:15.374Z,37.16
2022-08-28T23:08:42.974Z,37.09
2022-08-28T23:11:11.248Z,37.56
2022-08-28T23:13:39.241Z,37.57
2022-08-28T23:16:06.756Z,37.35
2022-08-28T23:18:51.934Z,37.56
2022-08-28T23:21:23.754Z,37.45
2022-08-28T23:23:53.762Z,37.87
2022-08-28T23:26:20.969Z,37.80
2022-08-28T23:28:48.148Z,37.98
2022-08-28T23:31:14.965Z,38.11
2022-08-28T23:33:42.201Z,38.30
2022-08-28T23:36:09.767Z,38.49
2022-08-28T23:38:40.450Z,38.12
2022-08-28T23:41:10.498Z,38.35
2022-08-28T23:43:37.586Z,38.21
2022-08-28T23:46:05.440Z,38.28
2022-08-28T23:48:32.605Z,38.36
2022-08-28T23:50:59.567Z,37.83
2022-08-28T23:53:26.564Z,38.03
2022-08-28T23:55:54.164Z,37.86
2022-08-28T23:58:22.484Z,37.90
